sensor_id;sensor_type;location;lat;lon;timestamp;pressure;altitude;pressure_sealevel;temperature
20058;BMP180;10189;49.546;7.906;2023-12-20T00:01:50;98197.00;;;6.70
20058;BMP180;10189;49.546;7.906;2023-12-20T00:04:16;98198.00;;;6.60
20058;BMP180;10189;49.546;7.906;2023-12-20T00:06:42;98196.00;;;6.70
20058;BMP180;10189;49.546;7.906;2023-12-20T00:09:08;98202.00;;;6.60
20058;BMP180;10189;49.546;7.906;2023-12-20T00:11:34;98216.00;;;6.70
20058;BMP180;10189;49.546;7.906;2023-12-20T00:13:59;98211.00;;;6.60
20058;BMP180;10189;49.546;7.906;2023-12-20T00:16:25;98213.00;;;6.70
20058;BMP180;10189;49.546;7.906;2023-12-20T00:18:51;98210.00;;;6.60
20058;BMP180;10189;49.546;7.906;2023-12-20T00:21:17;98219.00;;;6.60
20058;BMP180;10189;49.546;7.906;2023-12-20T00:23:42;98198.00;;;6.60
20058;BMP180;10189;49.546;7.906;2023-12-20T00:26:08;98201.00;;;6.60
20058;BMP180;10189;49.546;7.906;2023-12-20T00:28:34;98192.00;;;6.60
20058;BMP180;10189;49.546;7.906;2023-12-20T00:31:00;98187.00;;;6.60
20058;BMP180;10189;49.546;7.906;2023-12-20T00:33:26;98185.00;;;6.70
20058;BMP180;10189;49.546;7.906;2023-12-20T00:35:51;98181.00;;;6.60
20058;BMP180;10189;49.546;7.906;2023-12-20T00:38:17;98191.00;;;6.60
20058;BMP180;10189;49.546;7.906;2023-12-20T00:40:43;98181.00;;;6.60
20058;BMP180;10189;49.546;7.906;2023-12-20T00:43:09;98176.00;;;6.60
20058;BMP180;10189;49.546;7.906;2023-12-20T00:45:35;98167.00;;;6.60
20058;BMP180;10189;49.546;7.906;2023-12-20T00:48:00;98167.00;;;6.50
20058;BMP180;10189;49.546;7.906;2023-12-20T00:50:26;98167.00;;;6.60
20058;BMP180;10189;49.546;7.906;2023-12-20T00:52:52;98164.00;;;6.60
20058;BMP180;10189;49.546;7.906;2023-12-20T00:55:18;98157.00;;;6.60
20058;BMP180;10189;49.546;7.906;2023-12-20T00:57:44;98172.00;;;6.60
20058;BMP180;10189;49.546;7.906;2023-12-20T01:00:10;98153.00;;;6.70
20058;BMP180;10189;49.546;7.906;2023-12-20T01:02:36;98156.00;;;6.70
20058;BMP180;10189;49.546;7.906;2023-12-20T01:05:02;98154.00;;;6.60
20058;BMP180;10189;49.546;7.906;2023-12-20T01:07:28;98145.00;;;6.70
20058;BMP180;10189;49.546;7.906;2023-12-20T01:09:54;98148.00;;;6.70
20058;BMP180;10189;49.546;7.906;2023-12-20T01:12:20;98158.00;;;6.70
20058;BMP180;10189;49.546;7.906;2023-12-20T01:14:46;98150.00;;;6.70
20058;BMP180;10189;49.546;7.906;2023-12-20T01:17:12;98159.00;;;6.70
20058;BMP180;10189;49.546;7.906;2023-12-20T01:19:38;98150.00;;;6.70
20058;BMP180;10189;49.546;7.906;2023-12-20T01:22:04;98156.00;;;6.70
20058;BMP180;10189;49.546;7.906;2023-12-20T01:24:30;98160.00;;;6.70
20058;BMP180;10189;49.546;7.906;2023-12-20T01:26:56;98156.00;;;6.70
20058;BMP180;10189;49.546;7.906;2023-12-20T01:29:22;98153.00;;;6.70
20058;BMP180;10189;49.546;7.906;2023-12-20T01:31:48;98146.00;;;6.70
20058;BMP180;10189;49.546;7.906;2023-12-20T01:34:14;98153.00;;;6.70
20058;BMP180;10189;49.546;7.906;2023-12-20T01:36:40;98141.00;;;6.80
20058;BMP180;10189;49.546;7.906;2023-12-20T01:39:05;98148.00;;;6.80
20058;BMP180;10189;49.546;7.906;2023-12-20T01:41:31;98146.00;;;6.70
20058;BMP180;10189;49.546;7.906;2023-12-20T01:43:57;98140.00;;;6.70
20058;BMP180;10189;49.546;7.906;2023-12-20T01:46:24;98147.00;;;6.70
20058;BMP180;10189;49.546;7.906;2023-12-20T01:48:50;98164.00;;;6.80
20058;BMP180;10189;49.546;7.906;2023-12-20T01:51:17;98162.00;;;6.80
20058;BMP180;10189;49.546;7.906;2023-12-20T01:53:44;98182.00;;;6.80
20058;BMP180;10189;49.546;7.906;2023-12-20T01:56:10;98181.00;;;6.80
20058;BMP180;10189;49.546;7.906;2023-12-20T01:58:44;98163.00;;;6.80
20058;BMP180;10189;49.546;7.906;2023-12-20T02:01:12;98165.00;;;6.70
20058;BMP180;10189;49.546;7.906;2023-12-20T02:03:43;98163.00;;;6.80
20058;BMP180;10189;49.546;7.906;2023-12-20T02:06:09;98168.00;;;6.80
20058;BMP180;10189;49.546;7.906;2023-12-20T02:08:36;98165.00;;;6.80
20058;BMP180;10189;49.546;7.906;2023-12-20T02:11:02;98168.00;;;6.80
20058;BMP180;10189;49.546;7.906;2023-12-20T02:13:28;98171.00;;;6.80
20058;BMP180;10189;49.546;7.906;2023-12-20T02:15:55;98180.00;;;6.80
20058;BMP180;10189;49.546;7.906;2023-12-20T02:18:21;98160.00;;;6.90
20058;BMP180;10189;49.546;7.906;2023-12-20T02:20:47;98157.00;;;6.90
20058;BMP180;10189;49.546;7.906;2023-12-20T02:23:13;98158.00;;;6.90
20058;BMP180;10189;49.546;7.906;2023-12-20T02:25:39;98162.00;;;6.80
20058;BMP180;10189;49.546;7.906;2023-12-20T02:28:05;98151.00;;;6.90
20058;BMP180;10189;49.546;7.906;2023-12-20T02:30:32;98140.00;;;6.80
20058;BMP180;10189;49.546;7.906;2023-12-20T02:33:00;98124.00;;;6.90
20058;BMP180;10189;49.546;7.906;2023-12-20T02:35:26;98128.00;;;6.80
20058;BMP180;10189;49.546;7.906;2023-12-20T02:37:52;98148.00;;;6.80
20058;BMP180;10189;49.546;7.906;2023-12-20T02:40:18;98150.00;;;6.80
20058;BMP180;10189;49.546;7.906;2023-12-20T02:42:44;98162.00;;;6.80
20058;BMP180;10189;49.546;7.906;2023-12-20T02:45:10;98164.00;;;6.80
20058;BMP180;10189;49.546;7.906;2023-12-20T02:47:35;98142.00;;;6.90
20058;BMP180;10189;49.546;7.906;2023-12-20T02:50:01;98148.00;;;6.90
20058;BMP180;10189;49.546;7.906;2023-12-20T02:52:29;98149.00;;;6.90
20058;BMP180;10189;49.546;7.906;2023-12-20T02:54:54;98157.00;;;7.00
20058;BMP180;10189;49.546;7.906;2023-12-20T02:57:20;98168.00;;;7.00
20058;BMP180;10189;49.546;7.906;2023-12-20T02:59:46;98168.00;;;7.00
20058;BMP180;10189;49.546;7.906;2023-12-20T03:02:12;98186.00;;;7.10
20058;BMP180;10189;49.546;7.906;2023-12-20T03:04:38;98180.00;;;7.10
20058;BMP180;10189;49.546;7.906;2023-12-20T03:07:03;98166.00;;;7.10
20058;BMP180;10189;49.546;7.906;2023-12-20T03:09:29;98171.00;;;7.00
20058;BMP180;10189;49.546;7.906;2023-12-20T03:11:55;98180.00;;;7.10
20058;BMP180;10189;49.546;7.906;2023-12-20T03:14:21;98189.00;;;7.00
20058;BMP180;10189;49.546;7.906;2023-12-20T03:16:49;98182.00;;;7.10
20058;BMP180;10189;49.546;7.906;2023-12-20T03:19:16;98167.00;;;7.10
20058;BMP180;10189;49.546;7.906;2023-12-20T03:21:42;98181.00;;;7.10
20058;BMP180;10189;49.546;7.906;2023-12-20T03:24:10;98173.00;;;7.10
20058;BMP180;10189;49.546;7.906;2023-12-20T03:26:36;98170.00;;;7.10
20058;BMP180;10189;49.546;7.906;2023-12-20T03:29:02;98164.00;;;7.10
20058;BMP180;10189;49.546;7.906;2023-12-20T03:31:27;98160.00;;;7.10
20058;BMP180;10189;49.546;7.906;2023-12-20T03:33:53;98175.00;;;7.10
20058;BMP180;10189;49.546;7.906;2023-12-20T03:36:20;98170.00;;;7.20
20058;BMP180;10189;49.546;7.906;2023-12-20T03:38:46;98176.00;;;7.20
20058;BMP180;10189;49.546;7.906;2023-12-20T03:41:12;98180.00;;;7.20
20058;BMP180;10189;49.546;7.906;2023-12-20T03:43:38;98187.00;;;7.20
20058;BMP180;10189;49.546;7.906;2023-12-20T03:46:04;98175.00;;;7.30
20058;BMP180;10189;49.546;7.906;2023-12-20T03:48:33;98177.00;;;7.20
20058;BMP180;10189;49.546;7.906;2023-12-20T03:50:59;98188.00;;;7.30
20058;BMP180;10189;49.546;7.906;2023-12-20T03:53:25;98172.00;;;7.30
20058;BMP180;10189;49.546;7.906;2023-12-20T03:55:51;98182.00;;;7.30
20058;BMP180;10189;49.546;7.906;2023-12-20T03:58:16;98179.00;;;7.40
20058;BMP180;10189;49.546;7.906;2023-12-20T04:00:42;98193.00;;;7.40
20058;BMP180;10189;49.546;7.906;2023-12-20T04:03:08;98185.00;;;7.50
20058;BMP180;10189;49.546;7.906;2023-12-20T04:05:34;98192.00;;;7.40
20058;BMP180;10189;49.546;7.906;2023-12-20T04:08:01;98187.00;;;7.50
20058;BMP180;10189;49.546;7.906;2023-12-20T04:10:27;98191.00;;;7.50
20058;BMP180;10189;49.546;7.906;2023-12-20T04:12:53;98187.00;;;7.40
20058;BMP180;10189;49.546;7.906;2023-12-20T04:15:20;98179.00;;;7.40
20058;BMP180;10189;49.546;7.906;2023-12-20T04:17:46;98177.00;;;7.40
20058;BMP180;10189;49.546;7.906;2023-12-20T04:20:12;98184.00;;;7.40
20058;BMP180;10189;49.546;7.906;2023-12-20T04:22:38;98189.00;;;7.50
20058;BMP180;10189;49.546;7.906;2023-12-20T04:25:04;98196.00;;;7.50
20058;BMP180;10189;49.546;7.906;2023-12-20T04:27:30;98208.00;;;7.60
20058;BMP180;10189;49.546;7.906;2023-12-20T04:29:55;98194.00;;;7.60
20058;BMP180;10189;49.546;7.906;2023-12-20T04:32:21;98193.00;;;7.60
20058;BMP180;10189;49.546;7.906;2023-12-20T04:34:47;98204.00;;;7.50
20058;BMP180;10189;49.546;7.906;2023-12-20T04:37:13;98199.00;;;7.50
20058;BMP180;10189;49.546;7.906;2023-12-20T04:39:39;98196.00;;;7.50
20058;BMP180;10189;49.546;7.906;2023-12-20T04:42:06;98209.00;;;7.50
20058;BMP180;10189;49.546;7.906;2023-12-20T04:44:32;98212.00;;;7.60
20058;BMP180;10189;49.546;7.906;2023-12-20T04:46:57;98215.00;;;7.60
20058;BMP180;10189;49.546;7.906;2023-12-20T04:49:23;98204.00;;;7.50
20058;BMP180;10189;49.546;7.906;2023-12-20T04:51:49;98212.00;;;7.60
20058;BMP180;10189;49.546;7.906;2023-12-20T04:54:15;98211.00;;;7.60
20058;BMP180;10189;49.546;7.906;2023-12-20T04:56:41;98209.00;;;7.60
20058;BMP180;10189;49.546;7.906;2023-12-20T04:59:07;98217.00;;;7.70
20058;BMP180;10189;49.546;7.906;2023-12-20T05:01:33;98222.00;;;7.60
20058;BMP180;10189;49.546;7.906;2023-12-20T05:03:59;98226.00;;;7.60
20058;BMP180;10189;49.546;7.906;2023-12-20T05:06:25;98223.00;;;7.60
20058;BMP180;10189;49.546;7.906;2023-12-20T05:08:50;98228.00;;;7.70
20058;BMP180;10189;49.546;7.906;2023-12-20T05:11:16;98234.00;;;7.70
20058;BMP180;10189;49.546;7.906;2023-12-20T05:13:42;98239.00;;;7.70
20058;BMP180;10189;49.546;7.906;2023-12-20T05:16:08;98243.00;;;7.70
20058;BMP180;10189;49.546;7.906;2023-12-20T05:18:34;98252.00;;;7.70
20058;BMP180;10189;49.546;7.906;2023-12-20T05:21:00;98252.00;;;7.70
20058;BMP180;10189;49.546;7.906;2023-12-20T05:23:27;98253.00;;;7.70
20058;BMP180;10189;49.546;7.906;2023-12-20T05:25:53;98257.00;;;7.60
20058;BMP180;10189;49.546;7.906;2023-12-20T05:28:19;98254.00;;;7.60
20058;BMP180;10189;49.546;7.906;2023-12-20T05:30:44;98252.00;;;7.60
20058;BMP180;10189;49.546;7.906;2023-12-20T05:33:10;98250.00;;;7.60
20058;BMP180;10189;49.546;7.906;2023-12-20T05:35:36;98255.00;;;7.60
20058;BMP180;10189;49.546;7.906;2023-12-20T05:38:02;98271.00;;;7.50
20058;BMP180;10189;49.546;7.906;2023-12-20T05:40:28;98271.00;;;7.50
20058;BMP180;10189;49.546;7.906;2023-12-20T05:42:54;98290.00;;;7.50
20058;BMP180;10189;49.546;7.906;2023-12-20T05:45:20;98296.00;;;7.50
20058;BMP180;10189;49.546;7.906;2023-12-20T05:47:46;98290.00;;;7.50
20058;BMP180;10189;49.546;7.906;2023-12-20T05:50:12;98283.00;;;7.50
20058;BMP180;10189;49.546;7.906;2023-12-20T05:52:38;98299.00;;;7.50
20058;BMP180;10189;49.546;7.906;2023-12-20T05:55:04;98278.00;;;7.40
20058;BMP180;10189;49.546;7.906;2023-12-20T05:57:29;98293.00;;;7.30
20058;BMP180;10189;49.546;7.906;2023-12-20T05:59:55;98274.00;;;7.30
20058;BMP180;10189;49.546;7.906;2023-12-20T06:02:21;98291.00;;;7.30
20058;BMP180;10189;49.546;7.906;2023-12-20T06:04:47;98298.00;;;7.30
20058;BMP180;10189;49.546;7.906;2023-12-20T06:07:13;98295.00;;;7.20
20058;BMP180;10189;49.546;7.906;2023-12-20T06:09:40;98294.00;;;7.20
20058;BMP180;10189;49.546;7.906;2023-12-20T06:12:07;98296.00;;;7.10
20058;BMP180;10189;49.546;7.906;2023-12-20T06:14:34;98290.00;;;7.00
20058;BMP180;10189;49.546;7.906;2023-12-20T06:17:00;98295.00;;;6.80
20058;BMP180;10189;49.546;7.906;2023-12-20T06:19:27;98289.00;;;6.80
20058;BMP180;10189;49.546;7.906;2023-12-20T06:21:53;98297.00;;;6.70
20058;BMP180;10189;49.546;7.906;2023-12-20T06:24:19;98311.00;;;6.60
20058;BMP180;10189;49.546;7.906;2023-12-20T06:26:45;98304.00;;;6.60
20058;BMP180;10189;49.546;7.906;2023-12-20T06:29:12;98307.00;;;6.70
20058;BMP180;10189;49.546;7.906;2023-12-20T06:31:37;98308.00;;;6.60
20058;BMP180;10189;49.546;7.906;2023-12-20T06:34:03;98319.00;;;6.60
20058;BMP180;10189;49.546;7.906;2023-12-20T06:36:29;98327.00;;;6.50
20058;BMP180;10189;49.546;7.906;2023-12-20T06:38:55;98328.00;;;6.70
20058;BMP180;10189;49.546;7.906;2023-12-20T06:41:21;98318.00;;;6.60
20058;BMP180;10189;49.546;7.906;2023-12-20T06:43:50;98320.00;;;6.50
20058;BMP180;10189;49.546;7.906;2023-12-20T06:46:17;98318.00;;;6.40
20058;BMP180;10189;49.546;7.906;2023-12-20T06:48:43;98322.00;;;6.30
20058;BMP180;10189;49.546;7.906;2023-12-20T06:51:15;98324.00;;;6.40
20058;BMP180;10189;49.546;7.906;2023-12-20T06:53:41;98315.00;;;6.30
20058;BMP180;10189;49.546;7.906;2023-12-20T06:56:09;98329.00;;;6.20
20058;BMP180;10189;49.546;7.906;2023-12-20T06:58:35;98333.00;;;6.30
20058;BMP180;10189;49.546;7.906;2023-12-20T07:01:03;98327.00;;;6.20
20058;BMP180;10189;49.546;7.906;2023-12-20T07:03:30;98335.00;;;6.10
20058;BMP180;10189;49.546;7.906;2023-12-20T07:05:55;98335.00;;;6.10
20058;BMP180;10189;49.546;7.906;2023-12-20T07:08:21;98335.00;;;6.10
20058;BMP180;10189;49.546;7.906;2023-12-20T07:10:47;98335.00;;;6.10
20058;BMP180;10189;49.546;7.906;2023-12-20T07:13:13;98348.00;;;6.10
20058;BMP180;10189;49.546;7.906;2023-12-20T07:15:39;98347.00;;;6.20
20058;BMP180;10189;49.546;7.906;2023-12-20T07:18:05;98355.00;;;6.20
20058;BMP180;10189;49.546;7.906;2023-12-20T07:20:32;98356.00;;;6.20
20058;BMP180;10189;49.546;7.906;2023-12-20T07:22:58;98357.00;;;6.20
20058;BMP180;10189;49.546;7.906;2023-12-20T07:25:23;98359.00;;;6.20
20058;BMP180;10189;49.546;7.906;2023-12-20T07:27:49;98342.00;;;6.10
20058;BMP180;10189;49.546;7.906;2023-12-20T07:30:15;98347.00;;;6.10
20058;BMP180;10189;49.546;7.906;2023-12-20T07:32:41;98349.00;;;6.20
20058;BMP180;10189;49.546;7.906;2023-12-20T07:35:07;98341.00;;;6.20
20058;BMP180;10189;49.546;7.906;2023-12-20T07:37:33;98350.00;;;6.20
20058;BMP180;10189;49.546;7.906;2023-12-20T07:39:59;98358.00;;;6.20
20058;BMP180;10189;49.546;7.906;2023-12-20T07:42:25;98372.00;;;6.20
20058;BMP180;10189;49.546;7.906;2023-12-20T07:44:50;98371.00;;;6.20
20058;BMP180;10189;49.546;7.906;2023-12-20T07:47:16;98381.00;;;6.20
20058;BMP180;10189;49.546;7.906;2023-12-20T07:49:50;98392.00;;;6.10
20058;BMP180;10189;49.546;7.906;2023-12-20T07:52:17;98402.00;;;6.10
20058;BMP180;10189;49.546;7.906;2023-12-20T07:54:45;98401.00;;;6.20
20058;BMP180;10189;49.546;7.906;2023-12-20T07:57:11;98391.00;;;6.30
20058;BMP180;10189;49.546;7.906;2023-12-20T07:59:37;98400.00;;;6.50
20058;BMP180;10189;49.546;7.906;2023-12-20T08:02:03;98409.00;;;6.60
20058;BMP180;10189;49.546;7.906;2023-12-20T08:04:29;98391.00;;;6.70
20058;BMP180;10189;49.546;7.906;2023-12-20T08:06:55;98396.00;;;6.80
20058;BMP180;10189;49.546;7.906;2023-12-20T08:09:21;98388.00;;;6.80
20058;BMP180;10189;49.546;7.906;2023-12-20T08:11:48;98387.00;;;6.80
20058;BMP180;10189;49.546;7.906;2023-12-20T08:14:15;98393.00;;;6.90
20058;BMP180;10189;49.546;7.906;2023-12-20T08:16:41;98394.00;;;6.90
20058;BMP180;10189;49.546;7.906;2023-12-20T08:19:06;98394.00;;;6.80
20058;BMP180;10189;49.546;7.906;2023-12-20T08:21:33;98393.00;;;6.80
20058;BMP180;10189;49.546;7.906;2023-12-20T08:23:59;98395.00;;;6.80
20058;BMP180;10189;49.546;7.906;2023-12-20T08:26:26;98406.00;;;6.70
20058;BMP180;10189;49.546;7.906;2023-12-20T08:28:52;98414.00;;;6.70
20058;BMP180;10189;49.546;7.906;2023-12-20T08:31:19;98411.00;;;6.70
20058;BMP180;10189;49.546;7.906;2023-12-20T08:33:47;98418.00;;;6.70
20058;BMP180;10189;49.546;7.906;2023-12-20T08:36:14;98410.00;;;6.80
20058;BMP180;10189;49.546;7.906;2023-12-20T08:38:40;98406.00;;;6.90
20058;BMP180;10189;49.546;7.906;2023-12-20T08:41:07;98409.00;;;7.10
20058;BMP180;10189;49.546;7.906;2023-12-20T08:43:34;98397.00;;;7.10
20058;BMP180;10189;49.546;7.906;2023-12-20T08:46:01;98385.00;;;7.10
20058;BMP180;10189;49.546;7.906;2023-12-20T08:48:28;98396.00;;;7.10
20058;BMP180;10189;49.546;7.906;2023-12-20T08:50:54;98389.00;;;7.20
20058;BMP180;10189;49.546;7.906;2023-12-20T08:53:20;98397.00;;;7.30
20058;BMP180;10189;49.546;7.906;2023-12-20T08:55:47;98396.00;;;7.40
20058;BMP180;10189;49.546;7.906;2023-12-20T08:58:14;98383.00;;;7.30
20058;BMP180;10189;49.546;7.906;2023-12-20T09:00:40;98397.00;;;7.40
20058;BMP180;10189;49.546;7.906;2023-12-20T09:03:06;98396.00;;;7.50
20058;BMP180;10189;49.546;7.906;2023-12-20T09:05:32;98392.00;;;7.50
20058;BMP180;10189;49.546;7.906;2023-12-20T09:07:58;98406.00;;;7.60
20058;BMP180;10189;49.546;7.906;2023-12-20T09:10:24;98394.00;;;7.50
20058;BMP180;10189;49.546;7.906;2023-12-20T09:12:51;98400.00;;;7.50
20058;BMP180;10189;49.546;7.906;2023-12-20T09:15:26;98402.00;;;7.50
20058;BMP180;10189;49.546;7.906;2023-12-20T09:17:53;98411.00;;;7.60
20058;BMP180;10189;49.546;7.906;2023-12-20T09:20:19;98412.00;;;7.70
20058;BMP180;10189;49.546;7.906;2023-12-20T09:22:45;98420.00;;;7.70
20058;BMP180;10189;49.546;7.906;2023-12-20T09:25:11;98419.00;;;7.60
20058;BMP180;10189;49.546;7.906;2023-12-20T09:27:38;98417.00;;;7.80
20058;BMP180;10189;49.546;7.906;2023-12-20T09:30:05;98415.00;;;7.90
20058;BMP180;10189;49.546;7.906;2023-12-20T09:32:31;98404.00;;;8.00
20058;BMP180;10189;49.546;7.906;2023-12-20T09:34:57;98398.00;;;7.90
20058;BMP180;10189;49.546;7.906;2023-12-20T09:37:28;98403.00;;;7.90
20058;BMP180;10189;49.546;7.906;2023-12-20T09:39:54;98379.00;;;7.90
20058;BMP180;10189;49.546;7.906;2023-12-20T09:45:08;98396.00;;;8.00
20058;BMP180;10189;49.546;7.906;2023-12-20T09:47:35;98387.00;;;8.10
20058;BMP180;10189;49.546;7.906;2023-12-20T09:50:02;98398.00;;;8.20
20058;BMP180;10189;49.546;7.906;2023-12-20T09:52:29;98397.00;;;8.10
20058;BMP180;10189;49.546;7.906;2023-12-20T09:54:56;98395.00;;;8.00
20058;BMP180;10189;49.546;7.906;2023-12-20T09:57:22;98389.00;;;8.10
20058;BMP180;10189;49.546;7.906;2023-12-20T09:59:48;98387.00;;;8.10
20058;BMP180;10189;49.546;7.906;2023-12-20T10:02:17;98394.00;;;8.00
20058;BMP180;10189;49.546;7.906;2023-12-20T10:04:49;98384.00;;;8.00
20058;BMP180;10189;49.546;7.906;2023-12-20T10:07:15;98384.00;;;8.10
20058;BMP180;10189;49.546;7.906;2023-12-20T10:09:42;98385.00;;;8.00
20058;BMP180;10189;49.546;7.906;2023-12-20T10:12:09;98393.00;;;7.90
20058;BMP180;10189;49.546;7.906;2023-12-20T10:14:35;98381.00;;;8.00
20058;BMP180;10189;49.546;7.906;2023-12-20T10:17:05;98385.00;;;8.10
20058;BMP180;10189;49.546;7.906;2023-12-20T10:19:32;98380.00;;;8.10
20058;BMP180;10189;49.546;7.906;2023-12-20T10:22:04;98382.00;;;7.90
20058;BMP180;10189;49.546;7.906;2023-12-20T10:24:30;98380.00;;;7.90
20058;BMP180;10189;49.546;7.906;2023-12-20T10:27:07;98381.00;;;8.00
20058;BMP180;10189;49.546;7.906;2023-12-20T10:29:37;98373.00;;;7.90
20058;BMP180;10189;49.546;7.906;2023-12-20T10:32:26;98381.00;;;8.00
20058;BMP180;10189;49.546;7.906;2023-12-20T10:34:54;98374.00;;;8.20
20058;BMP180;10189;49.546;7.906;2023-12-20T10:37:20;98372.00;;;8.10
20058;BMP180;10189;49.546;7.906;2023-12-20T10:39:51;98372.00;;;8.10
20058;BMP180;10189;49.546;7.906;2023-12-20T10:42:26;98367.00;;;8.10
20058;BMP180;10189;49.546;7.906;2023-12-20T10:44:52;98368.00;;;8.10
20058;BMP180;10189;49.546;7.906;2023-12-20T10:47:24;98370.00;;;8.10
20058;BMP180;10189;49.546;7.906;2023-12-20T10:49:52;98361.00;;;8.20
20058;BMP180;10189;49.546;7.906;2023-12-20T10:52:23;98355.00;;;8.10
20058;BMP180;10189;49.546;7.906;2023-12-20T10:54:49;98369.00;;;8.10
20058;BMP180;10189;49.546;7.906;2023-12-20T10:57:18;98365.00;;;8.10
20058;BMP180;10189;49.546;7.906;2023-12-20T10:59:45;98353.00;;;8.10
20058;BMP180;10189;49.546;7.906;2023-12-20T11:02:13;98338.00;;;8.30
20058;BMP180;10189;49.546;7.906;2023-12-20T11:05:13;98343.00;;;8.20
20058;BMP180;10189;49.546;7.906;2023-12-20T11:07:51;98334.00;;;8.40
20058;BMP180;10189;49.546;7.906;2023-12-20T11:10:30;98352.00;;;8.20
20058;BMP180;10189;49.546;7.906;2023-12-20T11:13:16;98364.00;;;8.10
20058;BMP180;10189;49.546;7.906;2023-12-20T11:15:43;98354.00;;;8.10
20058;BMP180;10189;49.546;7.906;2023-12-20T11:18:09;98350.00;;;8.00
20058;BMP180;10189;49.546;7.906;2023-12-20T11:20:41;98339.00;;;8.00
20058;BMP180;10189;49.546;7.906;2023-12-20T11:23:09;98353.00;;;8.10
20058;BMP180;10189;49.546;7.906;2023-12-20T11:25:52;98332.00;;;8.20
20058;BMP180;10189;49.546;7.906;2023-12-20T11:28:24;98338.00;;;8.40
20058;BMP180;10189;49.546;7.906;2023-12-20T11:30:56;98325.00;;;8.20
20058;BMP180;10189;49.546;7.906;2023-12-20T11:33:45;98335.00;;;8.30
20058;BMP180;10189;49.546;7.906;2023-12-20T11:36:20;98323.00;;;8.40
20058;BMP180;10189;49.546;7.906;2023-12-20T11:38:56;98321.00;;;8.40
20058;BMP180;10189;49.546;7.906;2023-12-20T11:41:26;98316.00;;;8.40
20058;BMP180;10189;49.546;7.906;2023-12-20T11:43:56;98323.00;;;8.40
20058;BMP180;10189;49.546;7.906;2023-12-20T11:46:22;98327.00;;;8.40
20058;BMP180;10189;49.546;7.906;2023-12-20T11:48:48;98323.00;;;8.50
20058;BMP180;10189;49.546;7.906;2023-12-20T11:51:14;98329.00;;;8.50
20058;BMP180;10189;49.546;7.906;2023-12-20T11:53:41;98329.00;;;8.50
20058;BMP180;10189;49.546;7.906;2023-12-20T11:56:10;98336.00;;;8.30
20058;BMP180;10189;49.546;7.906;2023-12-20T11:58:37;98333.00;;;8.20
20058;BMP180;10189;49.546;7.906;2023-12-20T12:01:03;98336.00;;;8.30
20058;BMP180;10189;49.546;7.906;2023-12-20T12:03:30;98328.00;;;8.20
20058;BMP180;10189;49.546;7.906;2023-12-20T12:05:57;98331.00;;;8.20
20058;BMP180;10189;49.546;7.906;2023-12-20T12:08:23;98326.00;;;8.10
20058;BMP180;10189;49.546;7.906;2023-12-20T12:10:49;98328.00;;;8.20
20058;BMP180;10189;49.546;7.906;2023-12-20T12:13:15;98332.00;;;8.10
20058;BMP180;10189;49.546;7.906;2023-12-20T12:15:42;98345.00;;;8.00
20058;BMP180;10189;49.546;7.906;2023-12-20T12:18:08;98333.00;;;8.10
20058;BMP180;10189;49.546;7.906;2023-12-20T12:20:35;98334.00;;;8.00
20058;BMP180;10189;49.546;7.906;2023-12-20T12:23:05;98317.00;;;8.00
20058;BMP180;10189;49.546;7.906;2023-12-20T12:25:35;98326.00;;;7.90
20058;BMP180;10189;49.546;7.906;2023-12-20T12:28:02;98328.00;;;8.00
20058;BMP180;10189;49.546;7.906;2023-12-20T12:30:28;98333.00;;;8.10
20058;BMP180;10189;49.546;7.906;2023-12-20T12:32:56;98330.00;;;8.10
20058;BMP180;10189;49.546;7.906;2023-12-20T12:35:22;98323.00;;;8.20
20058;BMP180;10189;49.546;7.906;2023-12-20T12:37:48;98323.00;;;8.30
20058;BMP180;10189;49.546;7.906;2023-12-20T12:40:17;98312.00;;;8.40
20058;BMP180;10189;49.546;7.906;2023-12-20T12:42:44;98318.00;;;8.40
20058;BMP180;10189;49.546;7.906;2023-12-20T12:45:11;98299.00;;;8.40
20058;BMP180;10189;49.546;7.906;2023-12-20T12:47:38;98297.00;;;8.30
20058;BMP180;10189;49.546;7.906;2023-12-20T12:50:04;98300.00;;;8.50
20058;BMP180;10189;49.546;7.906;2023-12-20T12:52:31;98288.00;;;8.40
20058;BMP180;10189;49.546;7.906;2023-12-20T12:54:57;98297.00;;;8.40
20058;BMP180;10189;49.546;7.906;2023-12-20T12:57:23;98288.00;;;8.50
20058;BMP180;10189;49.546;7.906;2023-12-20T12:59:49;98290.00;;;8.40
20058;BMP180;10189;49.546;7.906;2023-12-20T13:02:16;98283.00;;;8.50
20058;BMP180;10189;49.546;7.906;2023-12-20T13:04:42;98284.00;;;8.40
20058;BMP180;10189;49.546;7.906;2023-12-20T13:07:09;98271.00;;;8.40
20058;BMP180;10189;49.546;7.906;2023-12-20T13:09:37;98263.00;;;8.50
20058;BMP180;10189;49.546;7.906;2023-12-20T13:12:03;98245.00;;;8.60
20058;BMP180;10189;49.546;7.906;2023-12-20T13:14:33;98240.00;;;8.50
20058;BMP180;10189;49.546;7.906;2023-12-20T13:17:01;98222.00;;;8.50
20058;BMP180;10189;49.546;7.906;2023-12-20T13:19:27;98237.00;;;8.40
20058;BMP180;10189;49.546;7.906;2023-12-20T13:21:53;98253.00;;;8.40
20058;BMP180;10189;49.546;7.906;2023-12-20T13:24:19;98235.00;;;8.30
20058;BMP180;10189;49.546;7.906;2023-12-20T13:26:45;98240.00;;;8.40
20058;BMP180;10189;49.546;7.906;2023-12-20T13:29:11;98242.00;;;8.50
20058;BMP180;10189;49.546;7.906;2023-12-20T13:31:37;98238.00;;;8.40
20058;BMP180;10189;49.546;7.906;2023-12-20T13:34:04;98228.00;;;8.50
20058;BMP180;10189;49.546;7.906;2023-12-20T13:36:30;98224.00;;;8.40
20058;BMP180;10189;49.546;7.906;2023-12-20T13:38:55;98230.00;;;8.40
20058;BMP180;10189;49.546;7.906;2023-12-20T13:41:22;98214.00;;;8.50
20058;BMP180;10189;49.546;7.906;2023-12-20T13:43:47;98205.00;;;8.50
20058;BMP180;10189;49.546;7.906;2023-12-20T13:46:13;98213.00;;;8.40
20058;BMP180;10189;49.546;7.906;2023-12-20T13:48:39;98214.00;;;8.40
20058;BMP180;10189;49.546;7.906;2023-12-20T13:51:05;98217.00;;;8.40
20058;BMP180;10189;49.546;7.906;2023-12-20T13:53:32;98215.00;;;8.40
20058;BMP180;10189;49.546;7.906;2023-12-20T13:55:58;98217.00;;;8.40
20058;BMP180;10189;49.546;7.906;2023-12-20T13:58:26;98216.00;;;8.30
20058;BMP180;10189;49.546;7.906;2023-12-20T14:00:51;98219.00;;;8.30
20058;BMP180;10189;49.546;7.906;2023-12-20T14:03:17;98223.00;;;8.30
20058;BMP180;10189;49.546;7.906;2023-12-20T14:05:45;98218.00;;;8.30
20058;BMP180;10189;49.546;7.906;2023-12-20T14:08:11;98211.00;;;8.30
20058;BMP180;10189;49.546;7.906;2023-12-20T14:10:37;98201.00;;;8.30
20058;BMP180;10189;49.546;7.906;2023-12-20T14:13:04;98209.00;;;8.30
20058;BMP180;10189;49.546;7.906;2023-12-20T14:15:31;98212.00;;;8.30
20058;BMP180;10189;49.546;7.906;2023-12-20T14:18:06;98210.00;;;8.30
20058;BMP180;10189;49.546;7.906;2023-12-20T14:20:33;98211.00;;;8.30
20058;BMP180;10189;49.546;7.906;2023-12-20T14:23:03;98205.00;;;8.20